createdAt,value
2019-02-23T00:00:22.781Z,21.97
2019-02-23T00:02:51.505Z,23.22
2019-02-23T00:05:20.224Z,25.15
2019-02-23T00:07:48.984Z,41.20
2019-02-23T00:10:17.700Z,26.23
2019-02-23T00:12:46.414Z,27.90
2019-02-23T00:15:15.132Z,22.58
2019-02-23T00:17:43.851Z,20.48
2019-02-23T00:20:12.588Z,14.63
2019-02-23T00:22:41.314Z,24.50
2019-02-23T00:25:10.027Z,20.00
2019-02-23T00:27:38.743Z,29.18
2019-02-23T00:30:08.162Z,22.75
2019-02-23T00:32:36.952Z,19.35
2019-02-23T00:35:05.736Z,26.27
2019-02-23T00:37:34.448Z,20.55
2019-02-23T00:40:03.244Z,13.65
2019-02-23T00:42:31.955Z,12.82
2019-02-23T00:45:00.626Z,14.68
2019-02-23T00:47:29.343Z,10.28
2019-02-23T00:49:58.056Z,6.75
2019-02-23T00:52:26.775Z,9.55
2019-02-23T00:54:55.419Z,8.33
2019-02-23T00:57:24.156Z,8.03
2019-02-23T00:59:52.873Z,10.72
2019-02-23T01:02:21.589Z,8.28
2019-02-23T01:04:50.323Z,11.38
2019-02-23T01:07:19.036Z,8.98
2019-02-23T01:09:47.793Z,6.53
2019-02-23T01:12:16.510Z,9.53
2019-02-23T01:14:45.224Z,9.55
2019-02-23T01:17:13.940Z,7.25
2019-02-23T01:19:47.702Z,4.67
2019-02-23T01:22:12.968Z,10.43
2019-02-23T01:24:41.683Z,7.28
2019-02-23T01:27:10.400Z,8.73
2019-02-23T01:29:39.116Z,5.53
2019-02-23T01:32:07.824Z,7.37
2019-02-23T01:34:36.579Z,7.33
2019-02-23T01:37:05.291Z,7.58
2019-02-23T01:39:34.007Z,6.70
2019-02-23T01:42:02.719Z,9.88
2019-02-23T01:44:31.438Z,4.87
2019-02-23T01:47:00.196Z,10.85
2019-02-23T01:49:28.907Z,5.65
2019-02-23T01:51:57.625Z,3.08
2019-02-23T01:54:26.337Z,8.95
2019-02-23T01:56:55.053Z,4.78
2019-02-23T01:59:23.793Z,4.62
2019-02-23T02:01:52.508Z,6.08
2019-02-23T02:04:21.220Z,3.50
2019-02-23T02:06:49.931Z,8.70
2019-02-23T02:09:18.652Z,4.78
2019-02-23T02:11:47.404Z,6.37
2019-02-23T02:14:16.111Z,5.47
2019-02-23T02:16:45.696Z,6.58
2019-02-23T02:19:14.416Z,7.42
2019-02-23T02:21:43.128Z,9.55
2019-02-23T02:24:11.871Z,4.97
2019-02-23T02:26:40.585Z,2.87
2019-02-23T02:29:09.296Z,3.77
2019-02-23T02:31:38.015Z,6.90
2019-02-23T02:34:11.400Z,11.48
2019-02-23T02:36:40.147Z,5.10
2019-02-23T02:39:13.015Z,4.37
2019-02-23T02:41:41.724Z,4.17
2019-02-23T02:44:10.446Z,5.65
2019-02-23T02:46:39.160Z,6.22
2019-02-23T02:49:07.908Z,4.40
2019-02-23T02:51:36.630Z,4.95
2019-02-23T02:54:05.536Z,6.08
2019-02-23T02:56:34.267Z,5.85
2019-02-23T02:59:02.977Z,3.77
2019-02-23T03:01:31.737Z,3.52
2019-02-23T03:04:00.535Z,5.25
2019-02-23T03:06:29.193Z,3.72
2019-02-23T03:08:57.830Z,5.92
2019-02-23T03:11:26.540Z,6.62
2019-02-23T03:13:55.288Z,3.15
2019-02-23T03:16:24.008Z,4.70
2019-02-23T03:18:52.721Z,7.90
2019-02-23T03:21:21.440Z,6.70
2019-02-23T03:23:50.169Z,5.47
2019-02-23T03:26:18.928Z,7.50
2019-02-23T03:28:47.649Z,9.18
2019-02-23T03:31:16.374Z,10.78
2019-02-23T03:33:45.096Z,14.35
2019-02-23T03:36:13.808Z,4.80
2019-02-23T03:38:42.544Z,3.35
2019-02-23T03:41:11.262Z,5.33
2019-02-23T03:43:39.971Z,3.90
2019-02-23T03:46:08.685Z,6.72
2019-02-23T03:48:37.397Z,5.33
2019-02-23T03:51:06.138Z,4.28
2019-02-23T03:53:34.848Z,5.92
2019-02-23T03:56:03.574Z,6.90
2019-02-23T03:58:32.291Z,4.80
2019-02-23T04:01:01.028Z,4.85
2019-02-23T04:03:29.769Z,4.30
2019-02-23T04:05:58.496Z,8.38
2019-02-23T04:08:27.204Z,5.95
2019-02-23T04:10:55.919Z,6.58
2019-02-23T04:13:24.637Z,3.77
2019-02-23T04:15:53.394Z,5.83
2019-02-23T04:18:22.114Z,10.13
2019-02-23T04:21:01.252Z,6.87
2019-02-23T04:23:21.205Z,3.75
2019-02-23T04:25:49.933Z,6.78
2019-02-23T04:28:18.671Z,9.45
2019-02-23T04:30:47.308Z,4.15
2019-02-23T04:33:16.044Z,4.58
2019-02-23T04:35:46.597Z,4.58
2019-02-23T04:38:15.133Z,4.22
2019-02-23T04:40:43.880Z,13.62
2019-02-23T04:43:12.599Z,7.35
2019-02-23T04:45:41.308Z,4.70
2019-02-23T04:48:09.948Z,7.53
2019-02-23T04:50:38.661Z,5.30
2019-02-23T04:53:07.419Z,6.08
2019-02-23T04:55:36.140Z,7.12
2019-02-23T04:58:04.853Z,4.75
2019-02-23T05:00:33.572Z,8.83
2019-02-23T05:03:02.288Z,5.92
2019-02-23T05:05:31.051Z,5.28
2019-02-23T05:07:59.756Z,11.35
2019-02-23T05:10:28.471Z,6.03
2019-02-23T05:12:57.195Z,20.25
2019-02-23T05:15:25.907Z,16.23
2019-02-23T05:17:55.539Z,13.90
2019-02-23T05:20:25.309Z,9.38
2019-02-23T05:22:54.021Z,7.83
2019-02-23T05:25:22.752Z,5.85
2019-02-23T05:27:51.464Z,5.50
2019-02-23T05:30:20.212Z,14.55
2019-02-23T05:32:48.931Z,9.58
2019-02-23T05:35:18.149Z,9.03
2019-02-23T05:37:46.795Z,11.88
2019-02-23T05:40:15.512Z,9.98
2019-02-23T05:42:44.255Z,9.08
2019-02-23T05:45:12.967Z,4.72
2019-02-23T05:47:41.676Z,6.60
2019-02-23T05:50:10.515Z,4.83
2019-02-23T05:52:39.220Z,8.63
2019-02-23T05:55:07.971Z,13.25
2019-02-23T05:57:36.683Z,26.70
2019-02-23T06:00:08.743Z,11.55
2019-02-23T06:02:37.468Z,44.73
2019-02-23T06:05:07.203Z,16.35
2019-02-23T06:07:35.931Z,7.22
2019-02-23T06:10:07.157Z,18.50
2019-02-23T06:12:35.859Z,6.40
2019-02-23T06:15:06.550Z,5.00
2019-02-23T06:17:35.259Z,12.15
2019-02-23T06:20:04.607Z,17.65
2019-02-23T06:22:33.312Z,9.98
2019-02-23T06:25:02.047Z,10.65
2019-02-23T06:27:30.762Z,10.00
2019-02-23T06:29:59.480Z,8.60
2019-02-23T06:32:28.221Z,7.40
2019-02-23T06:34:56.931Z,5.58
2019-02-23T06:37:25.653Z,6.83
2019-02-23T06:39:54.311Z,8.13
2019-02-23T06:42:23.064Z,11.45
2019-02-23T06:44:51.825Z,7.47
2019-02-23T06:47:20.583Z,9.23
2019-02-23T06:49:49.279Z,8.38
2019-02-23T06:52:17.996Z,6.37
2019-02-23T06:54:46.712Z,9.03
2019-02-23T06:57:15.537Z,11.12
2019-02-23T06:59:44.183Z,10.70
2019-02-23T07:02:12.910Z,10.93
2019-02-23T07:04:41.620Z,9.38
2019-02-23T07:07:10.413Z,7.70
2019-02-23T07:09:39.147Z,9.28
2019-02-23T07:12:07.883Z,11.90
2019-02-23T07:14:36.615Z,8.93
2019-02-23T07:17:05.378Z,7.62
2019-02-23T07:19:34.087Z,10.55
2019-02-23T07:22:03.656Z,12.65
2019-02-23T07:24:32.378Z,12.00
2019-02-23T07:27:01.098Z,8.85
2019-02-23T07:29:29.904Z,16.32
2019-02-23T07:31:58.677Z,13.72
2019-02-23T07:34:27.485Z,9.65
2019-02-23T07:36:56.219Z,10.80
2019-02-23T07:39:24.965Z,7.90
2019-02-23T07:41:53.683Z,10.25
2019-02-23T07:44:22.432Z,8.45
2019-02-23T07:46:51.182Z,13.25
2019-02-23T07:49:19.900Z,12.20
2019-02-23T07:51:48.591Z,11.75
2019-02-23T07:54:17.455Z,8.93
2019-02-23T07:56:46.167Z,7.78
2019-02-23T07:59:14.888Z,9.90
2019-02-23T08:01:43.691Z,11.10
2019-02-23T08:04:12.359Z,9.05
2019-02-23T08:06:41.074Z,10.82
2019-02-23T08:09:11.656Z,10.58
2019-02-23T08:11:40.482Z,9.03
2019-02-23T08:14:09.199Z,9.70
2019-02-23T08:16:37.944Z,13.15
2019-02-23T08:19:06.670Z,22.80
2019-02-23T08:21:35.391Z,11.55
2019-02-23T08:24:04.961Z,14.55
2019-02-23T08:26:33.683Z,12.65
2019-02-23T08:29:02.459Z,19.12
2019-02-23T08:31:31.175Z,14.73
2019-02-23T08:33:59.896Z,17.17
2019-02-23T08:36:28.548Z,13.25
2019-02-23T08:38:57.270Z,17.60
2019-02-23T08:41:26.039Z,13.20
2019-02-23T08:43:54.692Z,10.60
2019-02-23T08:46:23.408Z,14.58
2019-02-23T08:48:52.127Z,13.38
2019-02-23T08:51:20.848Z,9.45
2019-02-23T08:53:49.598Z,8.33
2019-02-23T08:56:18.368Z,11.18
2019-02-23T08:58:47.084Z,10.98
2019-02-23T09:01:15.881Z,10.78
2019-02-23T09:03:44.598Z,9.80
2019-02-23T09:06:13.344Z,13.93
2019-02-23T09:08:42.068Z,15.60
2019-02-23T09:11:10.788Z,13.62
2019-02-23T09:13:39.503Z,12.73
2019-02-23T09:16:08.227Z,9.38
2019-02-23T09:18:36.975Z,7.17
2019-02-23T09:21:05.710Z,10.50
2019-02-23T09:23:34.414Z,6.72
2019-02-23T09:26:04.063Z,6.42
2019-02-23T09:28:32.784Z,9.58
2019-02-23T09:31:03.554Z,14.10
2019-02-23T09:33:31.899Z,12.20
2019-02-23T09:36:00.620Z,16.40
2019-02-23T09:38:29.336Z,8.80
2019-02-23T09:40:58.967Z,10.90
2019-02-23T09:43:27.848Z,9.20
2019-02-23T09:45:56.543Z,9.68
2019-02-23T09:48:25.256Z,9.65
2019-02-23T09:50:53.968Z,9.83
2019-02-23T09:53:22.691Z,7.03
2019-02-23T09:55:51.636Z,8.60
2019-02-23T09:58:20.332Z,6.60
2019-02-23T10:00:49.122Z,8.23
2019-02-23T10:03:17.778Z,8.25
2019-02-23T10:05:46.487Z,8.40
2019-02-23T10:08:15.235Z,10.58
2019-02-23T10:10:43.980Z,11.83
2019-02-23T10:13:12.696Z,8.53
2019-02-23T10:15:41.411Z,7.08
2019-02-23T10:18:10.132Z,8.20
2019-02-23T10:20:38.808Z,8.83
2019-02-23T10:23:07.522Z,8.53
2019-02-23T10:25:36.231Z,16.67
2019-02-23T10:28:05.827Z,13.78
2019-02-23T10:30:34.536Z,7.05
2019-02-23T10:33:03.290Z,11.15
2019-02-23T10:35:31.985Z,9.83
2019-02-23T10:38:00.707Z,10.45
2019-02-23T10:40:29.429Z,26.65
2019-02-23T10:42:58.210Z,8.45
2019-02-23T10:45:26.947Z,11.40
2019-02-23T10:47:55.660Z,6.62
2019-02-23T10:50:24.367Z,8.53
2019-02-23T10:52:53.083Z,8.93
2019-02-23T10:55:21.793Z,8.40
2019-02-23T10:57:50.528Z,9.05
2019-02-23T11:00:20.819Z,10.88
2019-02-23T11:02:49.520Z,7.87
2019-02-23T11:05:19.026Z,10.78
2019-02-23T11:07:47.736Z,12.73
2019-02-23T11:10:16.760Z,9.98
2019-02-23T11:12:45.464Z,10.43
2019-02-23T11:15:17.053Z,26.57
2019-02-23T11:17:45.776Z,19.55
2019-02-23T11:20:15.581Z,17.15
2019-02-23T11:22:44.324Z,10.45
2019-02-23T11:25:13.039Z,18.90
2019-02-23T11:27:41.750Z,10.08
2019-02-23T11:30:13.164Z,17.12
2019-02-23T11:32:41.948Z,11.00
2019-02-23T11:35:12.594Z,15.93
2019-02-23T11:37:41.300Z,8.08
2019-02-23T11:40:14.435Z,11.03
2019-02-23T11:42:43.156Z,14.28
2019-02-23T11:45:12.471Z,8.05
2019-02-23T11:47:41.227Z,13.53
2019-02-23T11:50:11.567Z,9.45
2019-02-23T11:52:40.402Z,11.85
2019-02-23T11:55:09.118Z,12.10
2019-02-23T11:57:37.833Z,16.73
2019-02-23T12:00:09.539Z,15.43
2019-02-23T12:02:57.588Z,25.75
2019-02-23T12:05:26.357Z,24.15
2019-02-23T12:07:54.987Z,19.25
2019-02-23T12:10:23.632Z,30.20
2019-02-23T12:12:52.380Z,19.82
2019-02-23T12:15:21.091Z,11.45
2019-02-23T12:17:49.876Z,12.37
2019-02-23T12:20:18.625Z,10.63
2019-02-23T12:22:47.327Z,12.45
2019-02-23T12:25:16.442Z,11.53
2019-02-23T12:27:45.191Z,12.63
2019-02-23T12:30:13.915Z,16.42
2019-02-23T12:32:43.344Z,10.32
2019-02-23T12:35:12.047Z,12.80
2019-02-23T12:37:40.760Z,10.75
2019-02-23T12:40:10.976Z,12.82
2019-02-23T12:42:39.692Z,10.72
2019-02-23T12:45:10.706Z,12.55
2019-02-23T12:47:39.417Z,10.10
2019-02-23T12:50:13.477Z,25.17
2019-02-23T12:52:42.203Z,25.65
2019-02-23T12:55:13.921Z,21.68
2019-02-23T12:57:42.635Z,23.27
2019-02-23T13:00:13.934Z,12.07
2019-02-23T13:02:42.648Z,8.08
2019-02-23T13:05:11.383Z,17.12
2019-02-23T13:07:40.127Z,14.33
2019-02-23T13:10:11.401Z,14.25
2019-02-23T13:13:02.904Z,15.40
2019-02-23T13:15:43.613Z,15.10
2019-02-23T13:18:50.423Z,13.88
2019-02-23T13:21:27.806Z,9.70
2019-02-23T13:24:10.971Z,17.70
2019-02-23T13:26:42.618Z,15.88
2019-02-23T13:29:47.545Z,8.65
2019-02-23T13:32:40.640Z,13.95
2019-02-23T13:35:12.296Z,10.13
2019-02-23T13:37:44.054Z,16.80
2019-02-23T13:40:33.504Z,18.65
2019-02-23T13:43:32.131Z,16.05
2019-02-23T13:46:23.525Z,10.35
2019-02-23T13:48:57.946Z,12.28
2019-02-23T13:51:44.860Z,12.13
2019-02-23T13:54:40.012Z,15.03
2019-02-23T13:57:31.371Z,17.87
2019-02-23T14:00:21.436Z,11.93
2019-02-23T14:03:07.859Z,9.55
2019-02-23T14:05:42.164Z,16.23
2019-02-23T14:08:19.653Z,18.00
2019-02-23T14:11:12.007Z,11.53
2019-02-23T14:13:43.703Z,8.53
2019-02-23T14:16:37.541Z,13.98
2019-02-23T14:19:40.724Z,22.20
2019-02-23T14:22:18.035Z,16.10
2019-02-23T14:25:16.389Z,17.12
2019-02-23T14:28:00.149Z,17.05
2019-02-23T14:31:05.252Z,32.25
2019-02-23T14:33:57.936Z,30.05
2019-02-23T14:36:29.591Z,22.85
2019-02-23T14:39:26.737Z,26.12
2019-02-23T14:42:16.240Z,25.82
2019-02-23T14:44:47.916Z,20.52
2019-02-23T14:47:42.234Z,25.08
2019-02-23T14:50:19.896Z,24.52
2019-02-23T14:53:07.895Z,18.70
2019-02-23T14:55:48.721Z,23.40
2019-02-23T14:58:35.600Z,17.37
2019-02-23T15:01:28.598Z,15.65
2019-02-23T15:04:18.246Z,15.28
2019-02-23T15:06:49.892Z,37.33
2019-02-23T15:09:48.932Z,25.97
2019-02-23T15:12:32.345Z,13.32
2019-02-23T15:15:19.032Z,25.92
2019-02-23T15:18:07.308Z,19.80
2019-02-23T15:20:38.964Z,16.27
2019-02-23T15:23:10.617Z,13.10
2019-02-23T15:26:06.309Z,20.77
2019-02-23T15:29:02.440Z,22.60
2019-02-23T15:31:59.776Z,35.52
2019-02-23T15:34:40.095Z,19.95
2019-02-23T15:37:12.577Z,18.92
2019-02-23T15:42:54.203Z,17.37
2019-02-23T15:45:43.780Z,15.80
2019-02-23T15:48:34.356Z,13.90
2019-02-23T15:51:03.045Z,13.48
2019-02-23T15:53:31.866Z,13.83
2019-02-23T15:56:00.572Z,22.80
2019-02-23T15:58:29.300Z,16.48
2019-02-23T16:00:58.012Z,10.55
2019-02-23T16:03:26.750Z,15.15
2019-02-23T16:05:55.464Z,10.95
2019-02-23T16:08:24.186Z,14.38
2019-02-23T16:10:52.819Z,14.10
2019-02-23T16:13:21.540Z,14.90
2019-02-23T16:15:50.267Z,12.80
2019-02-23T16:18:18.991Z,17.15
2019-02-23T16:20:47.683Z,12.73
2019-02-23T16:23:16.407Z,11.50
2019-02-23T16:25:45.125Z,18.25
2019-02-23T16:28:13.871Z,29.40
2019-02-23T16:30:42.592Z,20.43
2019-02-23T16:33:11.305Z,20.90
2019-02-23T16:35:40.022Z,64.35
2019-02-23T16:38:08.738Z,21.17
2019-02-23T16:40:37.500Z,13.18
2019-02-23T16:43:06.229Z,9.18
2019-02-23T16:45:34.941Z,16.65
2019-02-23T16:48:03.656Z,18.62
2019-02-23T16:50:32.776Z,11.50
2019-02-23T16:53:01.516Z,11.25
2019-02-23T16:55:30.244Z,14.93
2019-02-23T16:57:58.987Z,11.60
2019-02-23T17:00:27.668Z,12.63
2019-02-23T17:02:56.387Z,13.88
2019-02-23T17:05:25.136Z,14.35
2019-02-23T17:07:53.849Z,7.78
2019-02-23T17:10:22.610Z,8.95
2019-02-23T17:12:51.319Z,11.40
2019-02-23T17:15:20.106Z,11.80
2019-02-23T17:17:48.860Z,12.53
2019-02-23T17:20:17.577Z,9.58
2019-02-23T17:22:46.289Z,14.38
2019-02-23T17:25:15.004Z,11.20
2019-02-23T17:27:43.725Z,14.47
2019-02-23T17:30:12.464Z,11.22
2019-02-23T17:32:41.192Z,11.10
2019-02-23T17:35:09.931Z,14.23
2019-02-23T17:37:38.648Z,15.88
2019-02-23T17:40:08.060Z,16.48
2019-02-23T17:42:36.801Z,27.10
2019-02-23T17:45:08.924Z,18.48
2019-02-23T17:47:37.735Z,14.15
2019-02-23T17:50:08.252Z,31.50
2019-02-23T17:52:36.971Z,16.95
2019-02-23T17:55:08.834Z,12.45
2019-02-23T17:57:37.546Z,10.25
2019-02-23T18:00:09.267Z,13.00
2019-02-23T18:02:37.997Z,8.95
2019-02-23T18:05:06.708Z,12.10
2019-02-23T18:07:35.456Z,11.65
2019-02-23T18:10:05.079Z,22.10
2019-02-23T18:12:33.792Z,18.82
2019-02-23T18:15:02.584Z,21.73
2019-02-23T18:17:31.293Z,17.52
2019-02-23T18:20:01.144Z,26.87
2019-02-23T18:22:29.960Z,16.15
2019-02-23T18:24:58.679Z,17.07
2019-02-23T18:27:27.441Z,13.15
2019-02-23T18:29:56.127Z,9.75
2019-02-23T18:32:24.864Z,17.77
2019-02-23T18:34:53.802Z,10.70
2019-02-23T18:37:22.598Z,13.43
2019-02-23T18:39:52.370Z,8.28
2019-02-23T18:42:21.239Z,12.25
2019-02-23T18:44:49.994Z,20.43
2019-02-23T18:47:18.830Z,34.18
2019-02-23T18:49:47.514Z,31.12
2019-02-23T18:52:16.325Z,19.90
2019-02-23T18:54:44.985Z,18.25
2019-02-23T18:57:13.727Z,19.07
2019-02-23T18:59:42.440Z,21.35
2019-02-23T19:02:11.188Z,14.65
2019-02-23T19:04:39.900Z,9.38
2019-02-23T19:07:08.620Z,11.50
2019-02-23T19:09:37.349Z,9.15
2019-02-23T19:12:06.060Z,9.90
2019-02-23T19:14:34.781Z,12.15
2019-02-23T19:17:03.545Z,11.78
2019-02-23T19:19:32.261Z,9.03
2019-02-23T19:22:01.016Z,10.48
2019-02-23T19:24:29.733Z,9.15
2019-02-23T19:26:58.446Z,8.48
2019-02-23T19:29:27.155Z,11.73
2019-02-23T19:31:55.907Z,5.92
2019-02-23T19:34:26.114Z,6.67
2019-02-23T19:36:54.928Z,7.37
2019-02-23T19:39:23.632Z,7.80
2019-02-23T19:41:52.358Z,12.28
2019-02-23T19:44:21.064Z,6.67
2019-02-23T19:46:51.721Z,8.75
2019-02-23T19:49:20.429Z,9.85
2019-02-23T19:51:49.136Z,10.05
2019-02-23T19:54:17.851Z,10.10
2019-02-23T19:56:47.121Z,9.08
2019-02-23T19:59:15.901Z,10.88
2019-02-23T20:01:44.699Z,11.57
2019-02-23T20:04:13.426Z,11.33
2019-02-23T20:06:42.142Z,17.32
2019-02-23T20:09:10.953Z,16.60
2019-02-23T20:11:39.695Z,13.38
2019-02-23T20:14:08.372Z,10.88
2019-02-23T20:16:37.109Z,9.95
2019-02-23T20:19:06.025Z,15.20
2019-02-23T20:21:34.784Z,14.63
2019-02-23T20:24:03.528Z,19.60
2019-02-23T20:26:32.259Z,11.00
2019-02-23T20:29:01.018Z,13.18
2019-02-23T20:31:29.739Z,24.30
2019-02-23T20:33:58.456Z,24.98
2019-02-23T20:36:27.199Z,22.73
2019-02-23T20:38:56.092Z,31.07
2019-02-23T20:41:24.735Z,30.70
2019-02-23T20:43:53.484Z,22.25
2019-02-23T20:46:22.202Z,23.70
2019-02-23T20:48:50.951Z,29.18
2019-02-23T20:51:19.526Z,30.95
2019-02-23T20:53:48.331Z,33.08
2019-02-23T20:56:17.176Z,24.32
2019-02-23T20:58:45.896Z,29.87
2019-02-23T21:01:14.672Z,23.92
2019-02-23T21:03:43.850Z,28.38
2019-02-23T21:06:12.663Z,19.87
2019-02-23T21:08:41.384Z,23.73
2019-02-23T21:11:10.192Z,42.08
2019-02-23T21:13:38.975Z,20.97
2019-02-23T21:16:07.698Z,15.70
2019-02-23T21:18:36.340Z,20.48
2019-02-23T21:21:05.100Z,24.30
2019-02-23T21:23:33.820Z,31.02
2019-02-23T21:26:02.555Z,28.23
2019-02-23T21:31:36.039Z,28.15
2019-02-23T21:34:04.747Z,20.02
2019-02-23T21:36:34.032Z,26.10
2019-02-23T21:39:02.752Z,18.82
2019-02-23T21:41:31.461Z,14.83
2019-02-23T21:44:00.149Z,16.70
2019-02-23T21:46:28.860Z,20.62
2019-02-23T21:48:57.568Z,18.27
2019-02-23T21:51:26.291Z,11.00
2019-02-23T21:53:55.008Z,11.88
2019-02-23T21:56:23.752Z,13.88
2019-02-23T21:58:52.467Z,18.98
2019-02-23T22:01:21.216Z,30.00
2019-02-23T22:03:49.955Z,26.45
2019-02-23T22:06:18.664Z,22.30
2019-02-23T22:08:49.139Z,23.27
2019-02-23T22:11:17.934Z,20.62
2019-02-23T22:13:46.682Z,17.73
2019-02-23T22:16:15.370Z,22.20
2019-02-23T22:18:44.214Z,15.80
2019-02-23T22:21:12.924Z,17.23
2019-02-23T22:23:41.644Z,20.10
2019-02-23T22:26:10.356Z,19.60
2019-02-23T22:28:39.078Z,24.32
2019-02-23T22:31:07.788Z,27.93
2019-02-23T22:33:36.532Z,25.45
2019-02-23T22:36:05.255Z,27.60
2019-02-23T22:38:33.902Z,29.10
2019-02-23T22:41:02.624Z,26.50
2019-02-23T22:43:31.348Z,22.98
2019-02-23T22:46:00.110Z,23.38
2019-02-23T22:48:28.821Z,25.70
2019-02-23T22:50:57.538Z,34.43
2019-02-23T22:53:26.259Z,21.40
2019-02-23T22:55:54.907Z,26.68
2019-02-23T22:58:23.644Z,18.57
2019-02-23T23:00:56.811Z,20.72
2019-02-23T23:03:25.532Z,22.45
2019-02-23T23:05:54.243Z,17.65
2019-02-23T23:08:22.955Z,15.93
2019-02-23T23:10:51.708Z,21.20
2019-02-23T23:13:20.419Z,18.10
2019-02-23T23:15:49.135Z,10.55
2019-02-23T23:18:17.856Z,15.78
2019-02-23T23:20:46.564Z,18.62
2019-02-23T23:23:15.315Z,15.48
2019-02-23T23:25:43.964Z,15.08
2019-02-23T23:28:12.603Z,17.32
2019-02-23T23:30:41.319Z,14.68
2019-02-23T23:33:10.028Z,16.10
2019-02-23T23:35:38.699Z,14.28
2019-02-23T23:38:07.411Z,14.80
2019-02-23T23:40:36.131Z,11.63
2019-02-23T23:43:04.847Z,23.52
2019-02-23T23:45:33.959Z,14.23
2019-02-23T23:48:02.709Z,15.45
2019-02-23T23:50:32.280Z,15.70
2019-02-23T23:53:02.972Z,15.63
2019-02-23T23:55:31.767Z,15.05
2019-02-23T23:58:00.479Z,17.98
